Time;durP1;ratioP1;P1;durP2;ratioP2;P2;SDS_P1;SDS_P2;PMS_P1;PMS_P2;Temp;Humidity;BMP_temperature;BMP_pressure;BME280_temperature;BME280_humidity;BME280_pressure;Samples;Min_cycle;Max_cycle;Signal;HPM_P1;HPM_P2
2022/10/04 00:00:24;;;;;;;5.80;2.67;;;;;;;15.34;100.00;98890.69;5021732;28;20036;-59
2022/10/04 00:02:50;;;;;;;11.05;3.05;;;;;;;15.30;100.00;98892.03;5013849;28;20799;-59
2022/10/04 00:05:17;;;;;;;6.18;2.83;;;;;;;15.35;100.00;98893.16;5011912;28;20026;-59
2022/10/04 00:07:47;;;;;;;6.43;2.92;;;;;;;15.09;100.00;98853.28;5038587;28;20032;-59
2022/10/04 00:10:29;;;;;;;6.85;3.17;;;;;;;15.34;100.00;98903.81;5046606;28;20025;-60
2022/10/04 00:13:00;;;;;;;5.32;2.70;;;;;;;15.29;100.00;98898.25;5021513;28;20334;-59
2022/10/04 00:15:31;;;;;;;6.30;2.83;;;;;;;15.30;100.00;98903.31;5005714;28;20045;-59
2022/10/04 00:18:15;;;;;;;5.65;2.70;;;;;;;15.31;100.00;98906.75;4998584;28;20053;-60
2022/10/04 00:20:47;;;;;;;10.25;2.85;;;;;;;15.00;100.00;98865.56;5020294;28;20087;-59
2022/10/04 00:23:37;;;;;;;5.28;2.63;;;;;;;15.07;100.00;98873.56;5030349;28;20033;-59
2022/10/04 00:26:24;;;;;;;7.25;3.00;;;;;;;15.25;100.00;98908.22;5004069;28;20171;-59
2022/10/04 00:28:50;;;;;;;8.40;2.67;;;;;;;14.96;100.00;98874.75;5004034;28;20043;-59
2022/10/04 00:31:25;;;;;;;5.85;2.90;;;;;;;15.09;100.00;98906.47;5022446;28;20053;-59
2022/10/04 00:34:07;;;;;;;5.07;2.47;;;;;;;14.72;100.00;98871.16;5036582;28;20068;-58
2022/10/04 00:36:44;;;;;;;6.93;2.42;;;;;;;15.00;100.00;98904.84;5021887;28;20120;-60
2022/10/04 00:39:10;;;;;;;5.07;2.38;;;;;;;14.82;100.00;98859.72;5050575;28;20108;-59
2022/10/04 00:41:48;;;;;;;5.57;2.50;;;;;;;15.14;100.00;98901.53;5023535;28;20061;-59
2022/10/04 00:45:01;;;;;;;6.28;2.28;;;;;;;15.15;100.00;98899.72;5021989;28;20805;-58
2022/10/04 00:47:55;;;;;;;7.63;2.40;;;;;;;15.09;100.00;98900.41;5022025;28;20100;-58
2022/10/04 00:50:32;;;;;;;6.93;2.20;;;;;;;15.01;100.00;98890.78;5019449;28;20045;-59
2022/10/04 00:52:59;;;;;;;5.75;2.17;;;;;;;15.02;100.00;98896.81;5048118;28;20071;-59
2022/10/04 00:55:49;;;;;;;5.72;2.08;;;;;;;14.99;100.00;98890.94;5018878;28;20034;-60
2022/10/04 00:58:39;;;;;;;6.03;1.92;;;;;;;14.97;100.00;98889.47;5017671;28;20046;-59
2022/10/04 01:01:05;;;;;;;5.60;2.38;;;;;;;15.08;100.00;98890.94;5053596;28;20021;-59
2022/10/04 01:03:32;;;;;;;4.50;2.30;;;;;;;15.08;100.00;98894.38;5019616;28;20099;-56
2022/10/04 01:06:00;;;;;;;6.88;2.40;;;;;;;15.07;100.00;98905.00;5024158;28;20688;-59
2022/10/04 01:08:37;;;;;;;7.70;2.20;;;;;;;14.82;100.00;98857.09;5031879;28;20080;-59
2022/10/04 01:11:09;;;;;;;6.50;2.40;;;;;;;15.13;100.00;98896.47;5053230;28;20017;-59
2022/10/04 01:13:41;;;;;;;4.80;2.20;;;;;;;15.10;100.00;98894.19;5021638;28;20065;-59
2022/10/04 01:16:39;;;;;;;8.13;2.70;;;;;;;15.05;100.00;98899.94;5017295;28;20102;-59
2022/10/04 01:19:23;;;;;;;4.97;2.28;;;;;;;14.92;100.00;98895.19;5022102;28;20094;-59
2022/10/04 01:22:04;;;;;;;7.25;3.08;;;;;;;14.74;100.00;98863.16;5018001;28;20030;-59
2022/10/04 01:24:35;;;;;;;5.65;2.88;;;;;;;14.95;100.00;98886.22;5024480;28;20030;-59
2022/10/04 01:27:00;;;;;;;6.10;3.20;;;;;;;15.00;100.00;98886.50;5013655;28;20052;-59
2022/10/04 01:29:28;;;;;;;6.18;3.03;;;;;;;14.97;100.00;98890.28;5016122;28;20117;-60
2022/10/04 01:31:56;;;;;;;5.80;2.97;;;;;;;14.92;100.00;98891.78;5020738;28;20512;-59
2022/10/04 01:34:23;;;;;;;6.63;3.35;;;;;;;14.85;100.00;98885.56;5017963;28;20068;-58
2022/10/04 01:36:51;;;;;;;5.53;2.92;;;;;;;14.70;100.00;98877.56;5026155;28;20045;-59
2022/10/04 01:39:19;;;;;;;8.05;3.50;;;;;;;14.67;100.00;98880.50;5022082;28;20181;-59
2022/10/04 01:41:51;;;;;;;8.40;3.35;;;;;;;14.68;100.00;98888.19;5023309;28;20519;-59
2022/10/04 01:44:23;;;;;;;7.78;3.13;;;;;;;14.69;100.00;98886.38;5021439;28;20037;-59
2022/10/04 01:46:49;;;;;;;11.48;3.25;;;;;;;14.70;100.00;98875.75;5028004;28;20114;-59
2022/10/04 01:49:19;;;;;;;6.45;3.28;;;;;;;14.72;100.00;98873.78;5019778;28;20041;-59
2022/10/04 01:52:15;;;;;;;7.07;3.35;;;;;;;14.77;100.00;98881.97;5054079;28;20048;-59
2022/10/04 01:54:43;;;;;;;5.47;3.33;;;;;;;14.55;100.00;98867.72;5023236;28;20045;-58
2022/10/04 01:57:16;;;;;;;6.38;3.08;;;;;;;14.63;100.00;98872.16;5046553;28;20033;-60
2022/10/04 01:59:53;;;;;;;8.00;3.50;;;;;;;14.61;100.00;98876.75;5019547;28;20029;-59
2022/10/04 02:02:42;;;;;;;5.20;2.80;;;;;;;14.65;100.00;98870.19;5022275;28;20037;-58
2022/10/04 02:05:11;;;;;;;6.65;3.10;;;;;;;14.59;100.00;98866.44;5029914;28;20353;-59
2022/10/04 02:07:38;;;;;;;5.88;3.33;;;;;;;14.64;100.00;98865.94;5022745;28;20546;-59
2022/10/04 02:10:06;;;;;;;6.97;3.05;;;;;;;14.59;100.00;98866.44;5020160;28;20032;-58
2022/10/04 02:12:32;;;;;;;5.22;3.10;;;;;;;14.53;100.00;98867.06;5018634;28;20104;-60
2022/10/04 02:15:00;;;;;;;6.10;3.38;;;;;;;14.50;100.00;98866.56;5016439;28;20119;-59
2022/10/04 02:17:29;;;;;;;6.68;3.10;;;;;;;14.20;100.00;98824.38;5018245;28;20060;-60
2022/10/04 02:19:55;;;;;;;8.25;3.10;;;;;;;14.46;100.00;98871.31;5050404;28;20652;-59
2022/10/04 02:22:22;;;;;;;5.30;2.75;;;;;;;14.41;100.00;98868.38;5021103;28;20131;-59
2022/10/04 02:24:48;;;;;;;6.15;2.90;;;;;;;14.43;100.00;98867.22;5051746;28;20029;-60
2022/10/04 02:27:15;;;;;;;5.93;2.95;;;;;;;14.48;100.00;98873.78;5018538;28;20066;-59
2022/10/04 02:29:40;;;;;;;4.47;2.60;;;;;;;14.37;100.00;98865.25;5047355;28;20063;-58
2022/10/04 02:35:06;;;;;;;8.07;2.90;;;;;;;14.47;100.00;98872.13;4970392;28;20041;-59
2022/10/04 02:37:32;;;;;;;5.45;2.70;;;;;;;14.49;100.00;98865.75;5026621;28;20082;-59
2022/10/04 02:40:11;;;;;;;7.20;2.75;;;;;;;14.55;100.00;98869.53;5017421;28;20029;-59
2022/10/04 02:42:46;;;;;;;5.10;2.53;;;;;;;14.21;100.00;98826.81;5015745;28;20030;-58
2022/10/04 02:45:27;;;;;;;5.80;2.90;;;;;;;14.24;100.00;98830.94;5000343;28;20038;-59
2022/10/04 02:47:57;;;;;;;6.90;2.90;;;;;;;14.15;100.00;98831.91;5024304;28;20096;-59
2022/10/04 02:50:47;;;;;;;5.32;2.30;;;;;;;14.32;100.00;98871.97;5034771;28;20500;-63
2022/10/04 02:53:22;;;;;;;6.47;2.40;;;;;;;14.33;100.00;98870.97;5020109;28;20040;-59
2022/10/04 02:55:48;;;;;;;5.28;2.28;;;;;;;14.30;100.00;98871.31;5024239;28;20694;-59
2022/10/04 02:58:17;;;;;;;8.30;2.20;;;;;;;14.35;100.00;98880.31;5025190;28;20034;-59
2022/10/04 03:00:56;;;;;;;5.65;2.30;;;;;;;14.27;100.00;98866.38;5056115;28;20767;-60
2022/10/04 03:03:29;;;;;;;5.93;2.80;;;;;;;13.97;100.00;98829.44;5021876;28;20025;-59
2022/10/04 03:05:55;;;;;;;5.55;2.65;;;;;;;14.10;100.00;98848.06;5022697;28;20029;-58
2022/10/04 03:08:21;;;;;;;6.82;2.92;;;;;;;14.08;100.00;98841.38;5024340;28;20029;-60
2022/10/04 03:10:46;;;;;;;6.53;2.80;;;;;;;14.27;100.00;98869.81;5021139;28;20033;-59
2022/10/04 03:13:13;;;;;;;7.63;2.90;;;;;;;14.30;100.00;98871.31;5023878;28;20068;-59
2022/10/04 03:15:38;;;;;;;5.30;2.42;;;;;;;14.33;100.00;98866.56;5045225;28;20099;-59
2022/10/04 03:18:04;;;;;;;5.53;2.50;;;;;;;14.30;100.00;98860.84;5022436;28;20586;-59
2022/10/04 03:20:30;;;;;;;5.30;2.40;;;;;;;14.34;100.00;98857.72;5024074;28;20385;-59
2022/10/04 03:22:56;;;;;;;5.85;2.47;;;;;;;14.47;100.00;98872.94;5028089;28;20041;-59
2022/10/04 03:25:25;;;;;;;4.93;2.28;;;;;;;14.34;100.00;98859.53;5053817;28;20028;-59
2022/10/04 03:27:50;;;;;;;4.75;2.00;;;;;;;14.13;100.00;98831.25;5048118;28;20129;-59
2022/10/04 03:30:18;;;;;;;4.80;2.38;;;;;;;14.11;100.00;98839.25;5053832;28;20113;-60
2022/10/04 03:32:44;;;;;;;5.50;2.42;;;;;;;14.30;100.00;98866.88;5019667;28;20104;-59
2022/10/04 03:35:32;;;;;;;4.70;2.22;;;;;;;14.07;100.00;98832.69;5056194;28;20152;-60
2022/10/04 03:37:58;;;;;;;5.07;2.15;;;;;;;14.02;100.00;98832.38;5048253;28;20508;-59
2022/10/04 03:40:27;;;;;;;5.43;2.28;;;;;;;14.12;100.00;98842.69;5055549;28;20021;-59
2022/10/04 03:42:53;;;;;;;5.30;2.20;;;;;;;14.36;100.00;98881.09;5014833;28;20029;-58
2022/10/04 03:45:20;;;;;;;5.35;2.10;;;;;;;14.13;100.00;98860.00;5021556;28;20041;-59
2022/10/04 03:47:47;;;;;;;6.03;2.30;;;;;;;14.06;100.00;98841.53;5006442;28;20081;-59
2022/10/04 03:50:20;;;;;;;7.05;2.20;;;;;;;14.13;100.00;98855.59;5054007;28;20094;-59
2022/10/04 03:52:53;;;;;;;5.28;2.50;;;;;;;14.10;100.00;98860.34;5054398;28;20028;-59
2022/10/04 03:55:19;;;;;;;5.28;2.20;;;;;;;14.23;100.00;98907.75;5053069;28;20529;-59
2022/10/04 03:57:44;;;;;;;4.13;2.17;;;;;;;14.33;100.00;98894.50;5051836;28;20039;-59
2022/10/04 04:00:14;;;;;;;5.75;2.42;;;;;;;14.23;100.00;98902.50;5023941;28;20647;-59
2022/10/04 04:02:45;;;;;;;;;;;;;;;14.28;100.00;98897.63;5024355;28;20032;-59
2022/10/04 04:05:19;;;;;;;5.20;2.25;;;;;;;14.32;100.00;98903.34;5025897;28;19921;-59
2022/10/04 04:07:48;;;;;;;5.55;2.20;;;;;;;14.26;100.00;98899.59;5033334;28;20041;-59
2022/10/04 04:10:19;;;;;;;;;;;;;;;14.26;100.00;98906.63;5022111;28;20309;-59
2022/10/04 04:12:52;;;;;;;5.47;2.33;;;;;;;14.29;100.00;98906.28;5025501;28;20366;-59
2022/10/04 04:15:17;;;;;;;5.82;2.35;;;;;;;14.39;100.00;98906.94;5052901;28;20116;-59
2022/10/04 04:17:47;;;;;;;5.18;2.65;;;;;;;14.20;100.00;98901.03;5022322;28;20167;-58
2022/10/04 04:20:28;;;;;;;6.43;2.10;;;;;;;14.17;100.00;98896.13;5021652;28;20041;-59
2022/10/04 04:23:31;;;;;;;6.35;2.00;;;;;;;14.23;100.00;98905.13;5050669;28;20388;-58
2022/10/04 04:26:10;;;;;;;4.45;1.85;;;;;;;14.24;100.00;98909.38;5014376;28;20044;-59
2022/10/04 04:28:42;;;;;;;5.70;2.37;;;;;;;14.21;100.00;98907.09;4998959;28;20029;-59
2022/10/04 04:31:37;;;;;;;4.50;2.00;;;;;;;14.23;100.00;98907.75;5036353;28;20393;-59
2022/10/04 04:34:05;;;;;;;4.97;2.20;;;;;;;13.95;100.00;98866.19;5021724;28;20038;-60
2022/10/04 04:36:32;;;;;;;5.57;2.13;;;;;;;14.16;100.00;98915.41;5002096;28;20029;-58
2022/10/04 04:39:53;;;;;;;5.18;2.25;;;;;;;13.96;99.95;98867.84;5019208;28;20734;-59
2022/10/04 04:41:55;;;;;;;5.50;2.28;;;;;;;13.93;100.00;98870.75;5016887;28;20060;-59
2022/10/04 04:44:21;;;;;;;5.35;2.17;;;;;;;14.13;100.00;98912.31;5017872;28;20461;-59
2022/10/04 04:46:46;;;;;;;7.15;2.40;;;;;;;14.07;100.00;98905.91;5004887;28;20041;-60
2022/10/04 04:49:15;;;;;;;5.30;1.90;;;;;;;14.21;99.17;98920.97;5042944;28;20037;-58
2022/10/04 04:51:46;;;;;;;4.80;2.10;;;;;;;14.04;99.72;98919.31;5029769;28;20025;-59
2022/10/04 04:54:13;;;;;;;6.00;2.00;;;;;;;14.03;99.70;98921.09;5053349;28;20623;-60
2022/10/04 04:56:38;;;;;;;5.43;2.00;;;;;;;14.13;99.28;98922.78;5000809;28;20029;-59
2022/10/04 04:59:06;;;;;;;5.07;2.03;;;;;;;13.87;99.05;98888.88;5021332;28;20696;-59
2022/10/04 05:01:42;;;;;;;4.43;2.00;;;;;;;14.17;99.37;98945.00;5023040;28;20578;-58
2022/10/04 05:04:07;;;;;;;6.63;2.40;;;;;;;14.12;99.38;98939.44;5020714;28;20597;-59
2022/10/04 05:06:34;;;;;;;4.50;2.20;;;;;;;14.18;98.53;98941.41;5018369;28;20033;-59
2022/10/04 05:09:00;;;;;;;6.18;2.33;;;;;;;13.89;98.02;98902.59;5018909;28;20025;-58
2022/10/04 05:11:29;;;;;;;5.35;2.03;;;;;;;14.13;97.42;98947.13;5015726;28;20441;-59
2022/10/04 05:13:55;;;;;;;;;;;;;;;14.21;97.01;98954.16;5000961;28;20048;-59
2022/10/04 05:16:42;;;;;;;6.15;2.10;;;;;;;14.15;96.77;98952.19;5018952;28;20000;-59
2022/10/04 05:19:43;;;;;;;4.75;2.00;;;;;;;14.17;96.75;98955.47;5052842;28;20072;-59
2022/10/04 05:22:11;;;;;;;5.28;1.95;;;;;;;14.18;97.03;98950.06;5029364;28;20037;-59
2022/10/04 05:24:45;;;;;;;4.93;1.83;;;;;;;14.20;96.76;98942.88;5018098;28;20302;-58
2022/10/04 05:27:17;;;;;;;6.28;2.10;;;;;;;14.15;97.55;98936.50;5008041;28;20068;-59
2022/10/04 05:30:04;;;;;;;4.75;1.95;;;;;;;14.20;97.62;98950.72;5016386;28;20028;-60
2022/10/04 05:32:58;;;;;;;4.80;2.30;;;;;;;14.26;97.22;98951.09;4955974;28;20067;-59
2022/10/04 05:35:25;;;;;;;5.07;2.10;;;;;;;14.12;97.54;98934.19;5018612;28;20037;-59
2022/10/04 05:37:54;;;;;;;4.75;2.00;;;;;;;14.16;98.03;98946.78;5020178;28;20132;-59
2022/10/04 05:40:44;;;;;;;5.30;2.40;;;;;;;14.08;97.45;98933.69;5017417;28;20030;-59
2022/10/04 05:43:36;;;;;;;5.30;2.38;;;;;;;14.14;97.31;98943.50;5052599;28;20026;-60
2022/10/04 05:46:14;;;;;;;4.75;2.13;;;;;;;13.86;97.95;98916.81;5029616;28;20052;-58
2022/10/04 05:48:42;;;;;;;5.75;1.92;;;;;;;14.11;97.63;98956.91;5014335;28;20392;-58
2022/10/04 05:51:23;;;;;;;4.78;2.15;;;;;;;13.87;98.01;98925.44;5016021;28;20108;-58
2022/10/04 05:53:49;;;;;;;4.80;2.10;;;;;;;14.06;98.88;98964.41;5051622;28;20090;-59
2022/10/04 05:56:24;;;;;;;6.35;2.40;;;;;;;14.02;99.36;98960.50;5000922;28;20503;-59
2022/10/04 05:59:17;;;;;;;4.65;2.10;;;;;;;14.12;98.65;98968.19;5018619;28;20119;-59
2022/10/04 06:01:51;;;;;;;6.45;2.00;;;;;;;14.05;98.90;98978.44;5021169;28;20034;-60
2022/10/04 06:04:36;;;;;;;6.15;2.30;;;;;;;14.10;98.51;98978.00;5018246;28;20042;-59
2022/10/04 06:07:15;;;;;;;6.65;2.17;;;;;;;13.83;99.02;98940.63;5046995;28;20029;-59
2022/10/04 06:09:43;;;;;;;6.53;2.03;;;;;;;14.03;99.16;98985.63;5015837;28;20040;-60
2022/10/04 06:12:24;;;;;;;8.23;2.83;;;;;;;13.89;98.93;98947.03;4962394;28;20033;-58
2022/10/04 06:15:14;;;;;;;6.53;2.22;;;;;;;13.89;98.24;98942.63;5025468;28;20112;-60
2022/10/04 06:18:03;;;;;;;6.32;2.25;;;;;;;14.14;98.45;98993.19;5020809;28;20037;-59
2022/10/04 06:20:57;;;;;;;7.80;2.28;;;;;;;14.18;98.33;98993.69;5020577;28;20035;-59
2022/10/04 06:23:25;;;;;;;4.50;2.30;;;;;;;14.15;98.42;98992.22;5055500;28;20029;-59
2022/10/04 06:25:56;;;;;;;7.68;2.70;;;;;;;14.14;98.52;98998.41;5026141;28;20504;-60
2022/10/04 06:28:27;;;;;;;5.47;2.42;;;;;;;14.28;98.85;99009.28;5023903;28;20037;-59
2022/10/04 06:31:07;;;;;;;4.80;2.20;;;;;;;14.25;98.79;99009.59;5052960;28;20049;-60
2022/10/04 06:33:54;;;;;;;4.85;2.25;;;;;;;14.34;98.00;99013.88;4976359;28;20116;-60
2022/10/04 06:36:44;;;;;;;5.35;2.65;;;;;;;14.30;98.06;99013.34;5021811;28;20052;-60
2022/10/04 06:39:17;;;;;;;4.82;2.30;;;;;;;14.36;96.85;99011.91;5025250;28;20041;-60
2022/10/04 06:41:51;;;;;;;4.60;2.35;;;;;;;14.29;97.54;99016.13;5048797;28;20022;-60
2022/10/04 06:44:31;;;;;;;8.07;3.33;;;;;;;14.01;98.00;98977.94;5024705;28;20065;-60
2022/10/04 06:47:38;;;;;;;5.00;2.40;;;;;;;13.98;98.29;98974.81;5024374;28;20710;-59
2022/10/04 06:50:25;;;;;;;4.82;2.50;;;;;;;14.31;97.61;99019.41;5024583;28;20113;-58
2022/10/04 06:52:53;;;;;;;4.75;2.38;;;;;;;14.31;97.67;99024.63;5033851;28;20052;-60
2022/10/04 06:55:37;;;;;;;5.45;2.95;;;;;;;14.06;97.52;98974.88;5021580;28;20041;-60
2022/10/04 06:58:28;;;;;;;6.68;2.72;;;;;;;14.08;98.01;98983.38;5034868;28;20041;-60
2022/10/04 07:01:08;;;;;;;4.80;2.65;;;;;;;14.32;96.63;99027.09;5027776;28;20508;-58
2022/10/04 07:03:58;;;;;;;6.95;3.03;;;;;;;14.30;96.34;99020.41;5019759;28;20041;-59
2022/10/04 07:06:37;;;;;;;8.38;2.80;;;;;;;14.11;96.12;98982.22;5015912;28;20030;-59
2022/10/04 07:09:06;;;;;;;5.90;2.90;;;;;;;14.30;96.28;99018.59;5024718;28;20268;-60
2022/10/04 07:11:41;;;;;;;7.10;2.65;;;;;;;14.25;96.59;99026.09;5025444;28;20063;-59
2022/10/04 07:14:11;;;;;;;5.22;2.70;;;;;;;14.30;96.34;99025.63;5020762;28;20029;-60
2022/10/04 07:16:42;;;;;;;6.38;2.90;;;;;;;14.27;96.18;99036.41;5022073;28;20539;-60
2022/10/04 07:19:19;;;;;;;5.00;2.33;;;;;;;14.38;96.89;99034.31;5022869;28;20049;-60
2022/10/04 07:21:53;;;;;;;7.05;2.85;;;;;;;14.38;95.93;99034.31;5015111;28;20814;-60
2022/10/04 07:24:24;;;;;;;5.32;2.70;;;;;;;14.36;95.09;99038.06;5024383;28;20484;-59
2022/10/04 07:26:51;;;;;;;6.28;2.83;;;;;;;14.29;94.56;99026.59;5053006;28;20623;-60
2022/10/04 07:29:36;;;;;;;6.68;2.70;;;;;;;14.17;94.14;99015.63;5022706;28;20033;-60
2022/10/04 07:32:04;;;;;;;6.53;2.90;;;;;;;14.33;94.36;99052.28;5054418;28;20084;-59
2022/10/04 07:35:08;;;;;;;7.53;2.67;;;;;;;14.21;94.32;99025.59;5020686;28;20029;-61
2022/10/04 07:37:58;;;;;;;7.47;2.90;;;;;;;14.57;92.29;99062.03;5022398;28;20473;-60
2022/10/04 07:40:36;;;;;;;5.95;3.10;;;;;;;14.30;91.38;99008.13;5055209;28;20104;-61
2022/10/04 07:43:08;;;;;;;5.15;2.60;;;;;;;14.66;90.68;99056.81;5006618;28;20056;-60
2022/10/04 07:45:38;;;;;;;6.47;2.60;;;;;;;14.65;89.93;99057.81;5021318;28;20035;-60
2022/10/04 07:48:11;;;;;;;5.57;2.40;;;;;;;14.71;90.00;99063.22;5022763;28;20113;-59
2022/10/04 07:51:00;;;;;;;8.05;2.42;;;;;;;14.57;88.83;99035.03;5055733;28;20505;-60
2022/10/04 07:54:01;;;;;;;5.43;2.37;;;;;;;14.86;87.35;99063.41;5021774;28;20535;-60
2022/10/04 07:56:37;;;;;;;6.05;2.70;;;;;;;14.90;85.50;99062.09;5019961;28;20025;-60
2022/10/04 07:59:09;;;;;;;6.18;2.45;;;;;;;14.90;83.04;99067.34;5031501;28;20264;-60
2022/10/04 08:01:41;;;;;;;4.75;2.20;;;;;;;14.96;83.02;99073.72;5021352;28;20031;-59
2022/10/04 08:04:30;;;;;;;5.72;2.63;;;;;;;14.96;81.41;99073.72;5021915;28;20061;-59
2022/10/04 08:06:59;;;;;;;5.82;2.20;;;;;;;14.99;80.97;99069.00;5020761;28;20048;-59
2022/10/04 08:09:40;;;;;;;6.10;2.75;;;;;;;14.98;79.50;99064.72;5022994;28;20037;-60
2022/10/04 08:12:22;;;;;;;5.80;2.65;;;;;;;15.05;80.28;99075.38;5021606;28;20033;-59
2022/10/04 08:15:22;;;;;;;5.38;2.47;;;;;;;15.09;82.71;99065.41;5022312;28;20041;-59
2022/10/04 08:18:09;;;;;;;;;;;;;;;15.04;83.89;99073.75;5021245;28;20096;-60
2022/10/04 08:20:34;;;;;;;5.63;2.75;;;;;;;14.99;84.15;99062.94;5021063;28;19916;-59
2022/10/04 08:23:18;;;;;;;5.70;2.85;;;;;;;14.98;82.92;99054.25;5023343;28;20037;-59
2022/10/04 08:26:11;;;;;;;6.82;2.80;;;;;;;15.07;79.89;99067.38;5014624;28;20056;-59
2022/10/04 08:31:44;;;;;;;6.15;2.85;;;;;;;15.23;80.06;99069.19;5021283;28;20106;-60
2022/10/04 08:34:50;;;;;;;6.20;2.70;;;;;;;15.17;82.13;99068.84;5023453;28;20025;-59
2022/10/04 08:37:23;;;;;;;7.35;3.25;;;;;;;15.28;80.99;99070.31;5010879;28;20484;-59
2022/10/04 08:40:29;;;;;;;6.57;2.95;;;;;;;15.25;81.53;99069.84;5018241;28;20617;-60
2022/10/04 08:43:26;;;;;;;7.45;2.83;;;;;;;15.30;82.48;99075.41;5002761;28;20045;-60
2022/10/04 08:45:56;;;;;;;6.32;3.03;;;;;;;15.37;83.79;99074.59;5015170;28;20033;-59
2022/10/04 08:48:23;;;;;;;5.78;2.83;;;;;;;15.41;83.81;99069.03;5019526;28;21096;-59
2022/10/04 08:50:54;;;;;;;5.20;2.78;;;;;;;15.27;85.10;99052.16;5021833;28;20021;-59
2022/10/04 08:53:37;;;;;;;7.65;3.40;;;;;;;15.40;85.06;99072.63;5017034;28;20041;-62
2022/10/04 08:56:17;;;;;;;9.20;3.78;;;;;;;15.44;85.29;99061.66;5023466;28;20028;-59
2022/10/04 08:59:08;;;;;;;8.07;4.40;;;;;;;15.35;84.92;99034.63;5021790;28;20033;-59
2022/10/04 09:02:11;;;;;;;8.77;4.15;;;;;;;15.60;84.31;99055.56;5056256;28;20025;-60
2022/10/04 09:04:36;;;;;;;6.20;3.22;;;;;;;15.65;84.50;99061.13;5021935;28;20033;-60
2022/10/04 09:07:26;;;;;;;6.28;3.22;;;;;;;15.73;84.58;99065.53;5021146;28;20386;-60
2022/10/04 09:10:32;;;;;;;7.15;3.95;;;;;;;15.80;85.09;99063.91;5017430;28;20025;-59
2022/10/04 09:13:21;;;;;;;6.13;2.90;;;;;;;15.86;84.52;99060.63;5030950;28;20034;-59
2022/10/04 09:15:52;;;;;;;6.33;3.30;;;;;;;15.92;84.10;99067.00;5019112;28;20411;-59
2022/10/04 09:18:28;;;;;;;7.82;3.17;;;;;;;15.76;85.24;99028.53;5019243;28;20029;-60
2022/10/04 09:21:02;;;;;;;7.75;3.10;;;;;;;16.04;84.42;99068.25;5018482;28;20030;-59
2022/10/04 09:23:30;;;;;;;6.25;3.15;;;;;;;16.04;83.02;99063.03;5020472;28;20041;-59
2022/10/04 09:26:33;;;;;;;5.78;3.38;;;;;;;16.14;82.23;99068.09;5022446;28;20025;-59
2022/10/04 09:29:36;;;;;;;6.03;2.80;;;;;;;16.13;79.59;99072.50;5021377;28;20072;-59
2022/10/04 09:32:25;;;;;;;4.80;2.53;;;;;;;16.24;79.82;99071.31;5032565;28;20079;-59
2022/10/04 09:35:12;;;;;;;5.45;2.55;;;;;;;16.30;78.66;99060.16;5016372;28;20021;-59
2022/10/04 09:38:03;;;;;;;6.53;2.13;;;;;;;16.30;77.18;99065.41;5014808;28;20022;-61
2022/10/04 09:40:50;;;;;;;5.25;2.20;;;;;;;16.38;76.24;99061.91;5015921;28;20083;-60
2022/10/04 09:43:47;;;;;;;4.30;2.08;;;;;;;16.48;76.08;99056.44;5053390;28;20500;-60
2022/10/04 09:46:38;;;;;;;4.55;2.08;;;;;;;16.55;76.21;99065.28;5008584;28;20084;-59
2022/10/04 09:49:22;;;;;;;4.30;1.70;;;;;;;16.62;76.60;99063.59;5021785;28;20025;-58
2022/10/04 09:52:17;;;;;;;4.68;2.05;;;;;;;16.63;75.25;99070.50;5026075;28;20041;-59
2022/10/04 09:55:12;;;;;;;6.95;2.35;;;;;;;16.70;75.72;99071.44;4988702;28;20056;-59
2022/10/04 09:57:40;;;;;;;6.15;3.38;;;;;;;16.82;75.44;99068.41;5023898;28;20052;-59
2022/10/04 10:00:22;;;;;;;10.27;7.25;;;;;;;16.91;75.25;99067.41;5020017;28;20399;-60
2022/10/04 10:03:11;;;;;;;7.47;3.50;;;;;;;16.94;74.06;99066.22;5021591;28;20865;-59
2022/10/04 10:06:02;;;;;;;7.10;2.88;;;;;;;17.00;74.10;99071.59;5023809;28;20028;-60
2022/10/04 10:08:41;;;;;;;5.25;2.08;;;;;;;16.98;74.26;99063.09;5052956;28;20491;-60
2022/10/04 10:14:40;;;;;;;5.20;2.47;;;;;;;17.13;74.60;99072.84;5009029;28;20104;-60
2022/10/04 10:17:15;;;;;;;5.28;2.10;;;;;;;17.00;73.59;99055.03;5016307;28;20037;-59
2022/10/04 10:20:15;;;;;;;4.50;2.00;;;;;;;17.07;74.10;99074.38;5021246;28;20033;-60
2022/10/04 10:23:18;;;;;;;5.57;1.95;;;;;;;17.15;75.03;99076.09;4957729;28;20415;-59
2022/10/04 10:26:22;;;;;;;4.90;2.10;;;;;;;17.00;72.89;99078.69;5052695;28;20402;-59
2022/10/04 10:29:01;;;;;;;6.28;2.20;;;;;;;17.05;73.93;99084.22;5020704;28;20124;-59
2022/10/04 10:31:39;;;;;;;6.07;2.30;;;;;;;16.91;74.29;99051.66;5020007;28;20094;-59
2022/10/04 10:34:41;;;;;;;4.78;2.10;;;;;;;17.17;73.58;99085.44;5024966;28;20026;-59
2022/10/04 10:37:37;;;;;;;4.78;2.10;;;;;;;17.08;73.63;99049.72;5020104;28;20037;-59
2022/10/04 10:40:34;;;;;;;5.95;2.35;;;;;;;17.00;74.86;99037.47;5023300;28;20075;-59
2022/10/04 10:43:24;;;;;;;5.50;2.30;;;;;;;17.30;73.65;99092.72;4974553;28;20055;-59
2022/10/04 10:46:15;;;;;;;7.32;2.20;;;;;;;17.25;72.77;99072.25;5019390;28;20025;-60
2022/10/04 10:48:46;;;;;;;6.97;2.70;;;;;;;17.35;73.74;99072.00;5019410;28;20071;-60
2022/10/04 10:51:39;;;;;;;6.13;3.08;;;;;;;17.48;71.78;99069.56;5023932;28;20112;-59
2022/10/04 10:54:14;;;;;;;5.53;2.40;;;;;;;17.60;73.15;99069.16;5021702;28;20056;-59
2022/10/04 10:56:51;;;;;;;6.30;2.50;;;;;;;17.63;73.57;99068.78;5022050;28;20076;-61
2022/10/04 10:59:55;;;;;;;6.97;2.85;;;;;;;17.58;73.11;99061.44;5055527;28;20033;-60
2022/10/04 11:02:42;;;;;;;5.90;2.50;;;;;;;17.68;73.16;99069.06;4969596;28;20447;-59
2022/10/04 11:05:32;;;;;;;6.03;2.78;;;;;;;17.45;72.27;99027.91;5023598;28;20057;-59
2022/10/04 11:08:26;;;;;;;6.90;2.80;;;;;;;17.73;74.01;99063.28;5018484;28;20044;-59
2022/10/04 11:11:16;;;;;;;7.00;3.63;;;;;;;17.80;72.24;99069.47;5025601;28;20025;-59
2022/10/04 11:13:53;;;;;;;7.60;3.22;;;;;;;17.83;73.28;99063.81;5029342;28;20041;-60
2022/10/04 11:16:20;;;;;;;5.93;3.25;;;;;;;17.90;73.55;99058.69;5015472;28;20737;-59
2022/10/04 11:18:57;;;;;;;8.23;3.50;;;;;;;17.96;72.49;99053.53;5023256;28;20643;-60
2022/10/04 11:21:34;;;;;;;5.80;2.55;;;;;;;17.93;75.07;99056.53;4954454;28;20033;-60
2022/10/04 11:24:24;;;;;;;5.47;3.15;;;;;;;17.72;73.87;99016.94;5024021;28;20071;-60
2022/10/04 11:27:44;;;;;;;6.13;2.72;;;;;;;17.73;75.19;99016.75;5021082;28;20026;-59
2022/10/04 11:30:22;;;;;;;6.20;2.95;;;;;;;18.03;74.71;99053.63;5020298;28;20064;-60
2022/10/04 11:33:13;;;;;;;9.20;3.72;;;;;;;18.00;73.65;99043.47;4999991;28;20065;-60
2022/10/04 11:35:57;;;;;;;8.32;4.90;;;;;;;18.14;74.05;99041.81;5018734;28;20103;-57
2022/10/04 11:38:48;;;;;;;7.95;4.60;;;;;;;18.30;73.78;99038.19;5023538;28;20149;-58
2022/10/04 11:41:25;;;;;;;7.65;4.53;;;;;;;18.29;74.74;99032.09;4972825;28;20029;-59
2022/10/04 11:44:20;;;;;;;8.40;4.68;;;;;;;18.31;74.37;99022.19;5016760;28;20536;-59
2022/10/04 11:47:00;;;;;;;7.10;4.00;;;;;;;18.38;76.74;99025.72;5022895;28;20057;-58
2022/10/04 11:49:34;;;;;;;7.85;4.30;;;;;;;18.50;75.96;99033.13;5023612;28;20093;-59
2022/10/04 11:52:24;;;;;;;7.90;4.63;;;;;;;18.55;76.52;99028.13;5021362;28;20116;-59
2022/10/04 11:55:19;;;;;;;7.43;5.15;;;;;;;18.58;76.39;99018.06;5018926;28;20029;-59
2022/10/04 11:57:45;;;;;;;7.90;5.38;;;;;;;18.79;77.29;99017.22;5017086;28;20037;-58
2022/10/04 12:00:13;;;;;;;9.85;6.60;;;;;;;18.86;75.37;99017.34;4972500;28;20045;-59
2022/10/04 12:03:06;;;;;;;9.65;6.90;;;;;;;18.80;75.44;99018.88;5023609;28;20615;-59
2022/10/04 12:05:51;;;;;;;11.55;7.25;;;;;;;18.79;76.34;99013.78;5021853;28;20468;-59
2022/10/04 12:08:48;;;;;;;10.70;7.55;;;;;;;18.89;76.40;99002.97;5028554;28;20067;-59
2022/10/04 12:14:39;;;;;;;13.10;9.45;;;;;;;18.98;77.53;99007.94;5021674;28;20403;-59
2022/10/04 12:17:31;;;;;;;15.23;9.75;;;;;;;19.12;76.21;99010.66;5023400;28;20088;-59
2022/10/04 12:20:17;;;;;;;13.80;10.30;;;;;;;19.23;75.67;98999.59;5031277;28;20037;-58
2022/10/04 12:22:59;;;;;;;18.70;9.98;;;;;;;19.31;74.66;98994.22;5054041;28;20485;-58
2022/10/04 12:25:49;;;;;;;15.55;10.90;;;;;;;19.53;74.19;99002.03;5020425;28;20037;-60
2022/10/04 12:28:30;;;;;;;13.50;10.52;;;;;;;19.63;73.44;98989.34;5016113;28;20148;-59
2022/10/04 12:31:25;;;;;;;16.83;11.02;;;;;;;19.77;72.59;98996.34;5026699;28;20029;-60
2022/10/04 12:34:14;;;;;;;16.08;11.00;;;;;;;19.85;69.62;98991.91;5016124;28;20504;-60
2022/10/04 12:36:56;;;;;;;;;;;;;;;19.72;69.42;98988.16;5022024;28;20052;-58